sensor_id;sensor_type;location;lat;lon;timestamp;P1;durP1;ratioP1;P2;durP2;ratioP2
51374;SDS011;37465;52.738;4.752;2024-02-26T00:00:14;16.57;;;14.17;;
51374;SDS011;37465;52.738;4.752;2024-02-26T00:02:42;16.83;;;13.85;;
51374;SDS011;37465;52.738;4.752;2024-02-26T00:05:09;16.27;;;13.93;;
51374;SDS011;37465;52.738;4.752;2024-02-26T00:07:37;17.45;;;13.73;;
51374;SDS011;37465;52.738;4.752;2024-02-26T00:10:05;17.90;;;14.75;;
51374;SDS011;37465;52.738;4.752;2024-02-26T00:12:33;18.30;;;15.03;;
51374;SDS011;37465;52.738;4.752;2024-02-26T00:15:00;19.42;;;15.60;;
51374;SDS011;37465;52.738;4.752;2024-02-26T00:17:29;19.38;;;15.80;;
51374;SDS011;37465;52.738;4.752;2024-02-26T00:19:57;19.67;;;15.52;;
51374;SDS011;37465;52.738;4.752;2024-02-26T00:22:24;21.10;;;16.33;;
51374;SDS011;37465;52.738;4.752;2024-02-26T00:24:52;20.15;;;15.52;;
51374;SDS011;37465;52.738;4.752;2024-02-26T00:27:19;21.73;;;16.17;;
51374;SDS011;37465;52.738;4.752;2024-02-26T00:29:47;20.30;;;15.43;;
51374;SDS011;37465;52.738;4.752;2024-02-26T00:32:15;19.95;;;15.63;;
51374;SDS011;37465;52.738;4.752;2024-02-26T00:34:44;19.65;;;15.55;;
51374;SDS011;37465;52.738;4.752;2024-02-26T00:37:11;21.02;;;15.88;;
51374;SDS011;37465;52.738;4.752;2024-02-26T00:39:39;20.92;;;16.23;;
51374;SDS011;37465;52.738;4.752;2024-02-26T00:42:06;21.02;;;16.23;;
51374;SDS011;37465;52.738;4.752;2024-02-26T00:44:34;20.08;;;15.88;;
51374;SDS011;37465;52.738;4.752;2024-02-26T00:47:02;21.52;;;16.60;;
51374;SDS011;37465;52.738;4.752;2024-02-26T00:49:29;21.85;;;16.52;;
51374;SDS011;37465;52.738;4.752;2024-02-26T00:51:58;21.42;;;16.08;;
51374;SDS011;37465;52.738;4.752;2024-02-26T00:54:26;20.98;;;16.10;;
51374;SDS011;37465;52.738;4.752;2024-02-26T00:56:53;21.85;;;16.45;;
51374;SDS011;37465;52.738;4.752;2024-02-26T00:59:21;21.83;;;16.30;;
51374;SDS011;37465;52.738;4.752;2024-02-26T01:01:48;20.90;;;16.13;;
51374;SDS011;37465;52.738;4.752;2024-02-26T01:04:16;20.50;;;15.93;;
51374;SDS011;37465;52.738;4.752;2024-02-26T01:06:43;21.63;;;16.05;;
51374;SDS011;37465;52.738;4.752;2024-02-26T01:09:11;18.80;;;14.88;;
51374;SDS011;37465;52.738;4.752;2024-02-26T01:11:39;20.50;;;15.13;;
51374;SDS011;37465;52.738;4.752;2024-02-26T01:14:07;20.40;;;15.23;;
51374;SDS011;37465;52.738;4.752;2024-02-26T01:16:34;20.63;;;15.40;;
51374;SDS011;37465;52.738;4.752;2024-02-26T01:19:02;19.40;;;14.82;;
51374;SDS011;37465;52.738;4.752;2024-02-26T01:21:30;20.00;;;14.73;;
51374;SDS011;37465;52.738;4.752;2024-02-26T01:23:58;21.73;;;15.45;;
51374;SDS011;37465;52.738;4.752;2024-02-26T01:26:27;19.63;;;15.00;;
51374;SDS011;37465;52.738;4.752;2024-02-26T01:28:54;20.92;;;15.13;;
51374;SDS011;37465;52.738;4.752;2024-02-26T01:31:22;19.80;;;14.48;;
51374;SDS011;37465;52.738;4.752;2024-02-26T01:33:49;20.73;;;14.93;;
51374;SDS011;37465;52.738;4.752;2024-02-26T01:36:17;21.30;;;15.43;;
51374;SDS011;37465;52.738;4.752;2024-02-26T01:38:45;20.10;;;14.77;;
51374;SDS011;37465;52.738;4.752;2024-02-26T01:41:13;23.33;;;15.63;;
51374;SDS011;37465;52.738;4.752;2024-02-26T01:43:42;21.00;;;15.10;;
51374;SDS011;37465;52.738;4.752;2024-02-26T01:46:10;21.17;;;15.40;;
51374;SDS011;37465;52.738;4.752;2024-02-26T01:48:40;20.80;;;15.07;;
51374;SDS011;37465;52.738;4.752;2024-02-26T01:51:07;23.02;;;14.80;;
51374;SDS011;37465;52.738;4.752;2024-02-26T01:53:35;20.40;;;15.13;;
51374;SDS011;37465;52.738;4.752;2024-02-26T01:56:03;21.88;;;15.45;;
51374;SDS011;37465;52.738;4.752;2024-02-26T01:58:31;22.42;;;15.90;;
51374;SDS011;37465;52.738;4.752;2024-02-26T02:01:00;21.98;;;15.45;;
51374;SDS011;37465;52.738;4.752;2024-02-26T02:03:29;22.60;;;16.00;;
51374;SDS011;37465;52.738;4.752;2024-02-26T02:05:58;24.23;;;16.77;;
51374;SDS011;37465;52.738;4.752;2024-02-26T02:08:25;24.70;;;17.27;;
51374;SDS011;37465;52.738;4.752;2024-02-26T02:10:54;24.47;;;17.37;;
51374;SDS011;37465;52.738;4.752;2024-02-26T02:13:22;25.13;;;16.80;;
51374;SDS011;37465;52.738;4.752;2024-02-26T02:15:49;22.88;;;16.67;;
51374;SDS011;37465;52.738;4.752;2024-02-26T02:18:18;25.02;;;17.30;;
51374;SDS011;37465;52.738;4.752;2024-02-26T02:20:47;23.20;;;17.38;;
51374;SDS011;37465;52.738;4.752;2024-02-26T02:23:15;24.17;;;17.63;;
51374;SDS011;37465;52.738;4.752;2024-02-26T02:25:42;25.70;;;17.67;;
51374;SDS011;37465;52.738;4.752;2024-02-26T02:28:10;25.60;;;18.27;;
51374;SDS011;37465;52.738;4.752;2024-02-26T02:30:38;24.85;;;18.13;;
51374;SDS011;37465;52.738;4.752;2024-02-26T02:33:06;22.20;;;17.13;;
51374;SDS011;37465;52.738;4.752;2024-02-26T02:35:34;24.85;;;17.60;;
51374;SDS011;37465;52.738;4.752;2024-02-26T02:38:03;25.73;;;17.90;;
51374;SDS011;37465;52.738;4.752;2024-02-26T02:40:30;24.58;;;17.60;;
51374;SDS011;37465;52.738;4.752;2024-02-26T02:42:58;23.17;;;17.55;;
51374;SDS011;37465;52.738;4.752;2024-02-26T02:45:26;23.17;;;16.87;;
51374;SDS011;37465;52.738;4.752;2024-02-26T02:47:53;21.38;;;13.73;;
51374;SDS011;37465;52.738;4.752;2024-02-26T02:50:21;19.25;;;11.65;;
51374;SDS011;37465;52.738;4.752;2024-02-26T02:52:49;19.77;;;12.82;;
51374;SDS011;37465;52.738;4.752;2024-02-26T02:55:18;20.08;;;12.45;;
51374;SDS011;37465;52.738;4.752;2024-02-26T02:57:45;21.92;;;13.43;;
51374;SDS011;37465;52.738;4.752;2024-02-26T03:00:13;21.23;;;12.48;;
51374;SDS011;37465;52.738;4.752;2024-02-26T03:02:40;24.98;;;17.10;;
51374;SDS011;37465;52.738;4.752;2024-02-26T03:05:09;23.05;;;16.85;;
51374;SDS011;37465;52.738;4.752;2024-02-26T03:07:36;22.00;;;16.13;;
51374;SDS011;37465;52.738;4.752;2024-02-26T03:10:04;20.65;;;15.93;;
51374;SDS011;37465;52.738;4.752;2024-02-26T03:12:33;21.80;;;15.77;;
51374;SDS011;37465;52.738;4.752;2024-02-26T03:15:01;19.58;;;12.23;;
51374;SDS011;37465;52.738;4.752;2024-02-26T03:17:29;19.00;;;14.77;;
51374;SDS011;37465;52.738;4.752;2024-02-26T03:19:56;19.98;;;12.25;;
51374;SDS011;37465;52.738;4.752;2024-02-26T03:22:24;17.35;;;11.00;;
51374;SDS011;37465;52.738;4.752;2024-02-26T03:24:51;16.50;;;10.32;;
51374;SDS011;37465;52.738;4.752;2024-02-26T03:27:19;19.90;;;14.75;;
51374;SDS011;37465;52.738;4.752;2024-02-26T03:29:48;20.88;;;14.95;;
51374;SDS011;37465;52.738;4.752;2024-02-26T03:32:15;18.48;;;13.93;;
51374;SDS011;37465;52.738;4.752;2024-02-26T03:34:43;14.43;;;11.07;;
51374;SDS011;37465;52.738;4.752;2024-02-26T03:37:10;17.60;;;13.80;;
51374;SDS011;37465;52.738;4.752;2024-02-26T03:39:38;18.35;;;13.38;;
51374;SDS011;37465;52.738;4.752;2024-02-26T03:42:06;15.52;;;12.55;;
51374;SDS011;37465;52.738;4.752;2024-02-26T03:44:33;17.92;;;12.88;;
51374;SDS011;37465;52.738;4.752;2024-02-26T03:47:02;16.42;;;13.18;;
51374;SDS011;37465;52.738;4.752;2024-02-26T03:49:30;17.30;;;13.10;;
51374;SDS011;37465;52.738;4.752;2024-02-26T03:51:57;14.27;;;11.70;;
51374;SDS011;37465;52.738;4.752;2024-02-26T03:54:25;14.43;;;12.20;;
51374;SDS011;37465;52.738;4.752;2024-02-26T03:56:52;15.50;;;12.57;;
51374;SDS011;37465;52.738;4.752;2024-02-26T03:59:20;15.73;;;12.73;;
51374;SDS011;37465;52.738;4.752;2024-02-26T04:01:50;15.45;;;12.32;;
51374;SDS011;37465;52.738;4.752;2024-02-26T04:04:18;15.75;;;12.52;;
51374;SDS011;37465;52.738;4.752;2024-02-26T04:06:46;15.35;;;12.07;;
51374;SDS011;37465;52.738;4.752;2024-02-26T04:09:14;15.23;;;12.93;;
51374;SDS011;37465;52.738;4.752;2024-02-26T04:11:42;14.77;;;12.30;;
51374;SDS011;37465;52.738;4.752;2024-02-26T04:14:10;13.73;;;11.77;;
51374;SDS011;37465;52.738;4.752;2024-02-26T04:16:38;13.90;;;11.32;;
51374;SDS011;37465;52.738;4.752;2024-02-26T04:19:06;12.73;;;10.77;;
51374;SDS011;37465;52.738;4.752;2024-02-26T04:21:35;12.57;;;10.73;;
51374;SDS011;37465;52.738;4.752;2024-02-26T04:24:03;12.30;;;10.35;;
51374;SDS011;37465;52.738;4.752;2024-02-26T04:26:30;11.50;;;8.93;;
51374;SDS011;37465;52.738;4.752;2024-02-26T04:28:58;10.43;;;7.82;;
51374;SDS011;37465;52.738;4.752;2024-02-26T04:31:25;11.65;;;8.23;;
51374;SDS011;37465;52.738;4.752;2024-02-26T04:33:53;12.15;;;7.60;;
51374;SDS011;37465;52.738;4.752;2024-02-26T04:36:21;10.25;;;7.30;;
51374;SDS011;37465;52.738;4.752;2024-02-26T04:38:51;10.77;;;7.13;;
51374;SDS011;37465;52.738;4.752;2024-02-26T04:41:20;12.30;;;9.82;;
51374;SDS011;37465;52.738;4.752;2024-02-26T04:43:48;11.60;;;9.70;;
51374;SDS011;37465;52.738;4.752;2024-02-26T04:46:15;9.70;;;8.67;;
51374;SDS011;37465;52.738;4.752;2024-02-26T04:48:43;10.40;;;8.20;;
51374;SDS011;37465;52.738;4.752;2024-02-26T04:51:13;9.38;;;7.70;;
51374;SDS011;37465;52.738;4.752;2024-02-26T04:53:40;8.83;;;7.30;;
51374;SDS011;37465;52.738;4.752;2024-02-26T04:56:09;8.38;;;7.07;;
51374;SDS011;37465;52.738;4.752;2024-02-26T04:58:37;8.30;;;6.95;;
51374;SDS011;37465;52.738;4.752;2024-02-26T05:01:04;9.88;;;7.47;;
51374;SDS011;37465;52.738;4.752;2024-02-26T05:03:31;7.90;;;7.10;;
51374;SDS011;37465;52.738;4.752;2024-02-26T05:06:02;8.77;;;7.30;;
51374;SDS011;37465;52.738;4.752;2024-02-26T05:08:30;7.95;;;7.00;;
51374;SDS011;37465;52.738;4.752;2024-02-26T05:10:59;7.97;;;6.80;;
51374;SDS011;37465;52.738;4.752;2024-02-26T05:13:30;7.30;;;6.57;;
51374;SDS011;37465;52.738;4.752;2024-02-26T05:15:57;7.15;;;6.38;;
51374;SDS011;37465;52.738;4.752;2024-02-26T05:18:25;8.70;;;6.70;;
51374;SDS011;37465;52.738;4.752;2024-02-26T05:20:52;6.72;;;5.90;;
51374;SDS011;37465;52.738;4.752;2024-02-26T05:23:20;6.60;;;5.90;;
51374;SDS011;37465;52.738;4.752;2024-02-26T05:25:49;6.90;;;5.95;;
51374;SDS011;37465;52.738;4.752;2024-02-26T05:28:16;8.10;;;5.88;;
51374;SDS011;37465;52.738;4.752;2024-02-26T05:30:48;6.88;;;6.10;;
51374;SDS011;37465;52.738;4.752;2024-02-26T05:33:15;8.32;;;6.55;;
51374;SDS011;37465;52.738;4.752;2024-02-26T05:35:44;8.93;;;6.67;;
51374;SDS011;37465;52.738;4.752;2024-02-26T05:38:12;9.50;;;6.88;;
51374;SDS011;37465;52.738;4.752;2024-02-26T05:40:39;8.52;;;6.22;;
51374;SDS011;37465;52.738;4.752;2024-02-26T05:43:07;9.27;;;6.68;;
51374;SDS011;37465;52.738;4.752;2024-02-26T05:45:34;6.90;;;6.20;;
51374;SDS011;37465;52.738;4.752;2024-02-26T05:48:03;9.57;;;6.00;;
51374;SDS011;37465;52.738;4.752;2024-02-26T05:50:31;9.20;;;6.88;;
51374;SDS011;37465;52.738;4.752;2024-02-26T05:52:59;6.47;;;5.13;;
51374;SDS011;37465;52.738;4.752;2024-02-26T05:55:26;7.10;;;5.03;;
51374;SDS011;37465;52.738;4.752;2024-02-26T05:57:54;6.38;;;5.28;;
51374;SDS011;37465;52.738;4.752;2024-02-26T06:00:21;7.72;;;5.20;;
51374;SDS011;37465;52.738;4.752;2024-02-26T06:02:49;8.27;;;5.15;;
51374;SDS011;37465;52.738;4.752;2024-02-26T06:05:18;8.90;;;7.00;;
51374;SDS011;37465;52.738;4.752;2024-02-26T06:07:45;8.98;;;5.95;;
51374;SDS011;37465;52.738;4.752;2024-02-26T06:10:13;7.50;;;5.47;;
51374;SDS011;37465;52.738;4.752;2024-02-26T06:12:41;8.40;;;5.40;;
51374;SDS011;37465;52.738;4.752;2024-02-26T06:15:08;8.70;;;5.88;;
51374;SDS011;37465;52.738;4.752;2024-02-26T06:17:36;9.52;;;6.13;;
51374;SDS011;37465;52.738;4.752;2024-02-26T06:20:04;8.20;;;7.32;;
51374;SDS011;37465;52.738;4.752;2024-02-26T06:22:34;8.50;;;7.22;;
51374;SDS011;37465;52.738;4.752;2024-02-26T06:25:02;8.05;;;6.43;;
51374;SDS011;37465;52.738;4.752;2024-02-26T06:27:29;6.50;;;5.35;;
51374;SDS011;37465;52.738;4.752;2024-02-26T06:29:57;5.68;;;4.93;;
51374;SDS011;37465;52.738;4.752;2024-02-26T06:32:24;6.18;;;4.82;;
51374;SDS011;37465;52.738;4.752;2024-02-26T06:34:54;8.75;;;5.28;;
51374;SDS011;37465;52.738;4.752;2024-02-26T06:37:21;7.85;;;5.22;;
51374;SDS011;37465;52.738;4.752;2024-02-26T06:39:50;7.78;;;6.25;;
51374;SDS011;37465;52.738;4.752;2024-02-26T06:42:18;6.60;;;5.38;;
51374;SDS011;37465;52.738;4.752;2024-02-26T06:44:46;7.05;;;5.90;;
51374;SDS011;37465;52.738;4.752;2024-02-26T06:47:13;8.00;;;5.15;;
51374;SDS011;37465;52.738;4.752;2024-02-26T06:49:41;7.47;;;5.05;;
51374;SDS011;37465;52.738;4.752;2024-02-26T06:52:10;7.68;;;6.20;;
51374;SDS011;37465;52.738;4.752;2024-02-26T06:54:37;6.55;;;5.20;;
51374;SDS011;37465;52.738;4.752;2024-02-26T06:57:06;9.05;;;5.70;;
51374;SDS011;37465;52.738;4.752;2024-02-26T06:59:34;6.88;;;4.03;;
51374;SDS011;37465;52.738;4.752;2024-02-26T07:02:01;8.32;;;4.10;;
51374;SDS011;37465;52.738;4.752;2024-02-26T07:04:29;6.93;;;4.32;;
51374;SDS011;37465;52.738;4.752;2024-02-26T07:06:58;5.68;;;3.45;;
51374;SDS011;37465;52.738;4.752;2024-02-26T07:09:26;11.85;;;4.20;;
51374;SDS011;37465;52.738;4.752;2024-02-26T07:11:53;5.38;;;4.40;;
51374;SDS011;37465;52.738;4.752;2024-02-26T07:14:26;5.75;;;4.70;;
51374;SDS011;37465;52.738;4.752;2024-02-26T07:16:54;4.80;;;3.80;;
51374;SDS011;37465;52.738;4.752;2024-02-26T07:19:21;7.25;;;3.55;;
51374;SDS011;37465;52.738;4.752;2024-02-26T07:21:49;5.00;;;4.15;;
51374;SDS011;37465;52.738;4.752;2024-02-26T07:24:16;6.40;;;3.60;;
51374;SDS011;37465;52.738;4.752;2024-02-26T07:26:44;6.13;;;3.58;;
51374;SDS011;37465;52.738;4.752;2024-02-26T07:29:11;4.80;;;3.58;;
51374;SDS011;37465;52.738;4.752;2024-02-26T07:31:40;4.90;;;3.95;;
51374;SDS011;37465;52.738;4.752;2024-02-26T07:34:08;4.00;;;3.03;;
51374;SDS011;37465;52.738;4.752;2024-02-26T07:36:36;3.60;;;2.80;;
51374;SDS011;37465;52.738;4.752;2024-02-26T07:39:04;3.63;;;2.83;;
51374;SDS011;37465;52.738;4.752;2024-02-26T07:41:31;5.32;;;2.40;;
51374;SDS011;37465;52.738;4.752;2024-02-26T07:43:59;6.50;;;2.28;;
51374;SDS011;37465;52.738;4.752;2024-02-26T07:46:26;3.13;;;2.20;;
51374;SDS011;37465;52.738;4.752;2024-02-26T07:48:55;3.13;;;1.92;;
51374;SDS011;37465;52.738;4.752;2024-02-26T07:51:23;2.95;;;1.80;;
51374;SDS011;37465;52.738;4.752;2024-02-26T07:53:51;5.00;;;2.10;;
51374;SDS011;37465;52.738;4.752;2024-02-26T07:56:19;2.00;;;1.42;;
51374;SDS011;37465;52.738;4.752;2024-02-26T07:58:47;2.50;;;1.48;;
51374;SDS011;37465;52.738;4.752;2024-02-26T08:01:14;2.78;;;1.15;;
51374;SDS011;37465;52.738;4.752;2024-02-26T08:03:42;2.40;;;1.30;;
51374;SDS011;37465;52.738;4.752;2024-02-26T08:06:12;2.88;;;0.98;;
51374;SDS011;37465;52.738;4.752;2024-02-26T08:08:39;3.78;;;1.08;;
51374;SDS011;37465;52.738;4.752;2024-02-26T08:11:07;2.90;;;1.38;;
51374;SDS011;37465;52.738;4.752;2024-02-26T08:13:35;2.20;;;1.25;;
51374;SDS011;37465;52.738;4.752;2024-02-26T08:16:03;1.67;;;1.40;;
51374;SDS011;37465;52.738;4.752;2024-02-26T08:18:30;2.78;;;0.93;;
51374;SDS011;37465;52.738;4.752;2024-02-26T08:20:58;2.92;;;1.20;;
51374;SDS011;37465;52.738;4.752;2024-02-26T08:23:27;2.80;;;1.10;;
51374;SDS011;37465;52.738;4.752;2024-02-26T08:25:55;3.00;;;1.27;;
51374;SDS011;37465;52.738;4.752;2024-02-26T08:28:22;1.40;;;1.30;;
51374;SDS011;37465;52.738;4.752;2024-02-26T08:30:51;1.85;;;1.23;;
51374;SDS011;37465;52.738;4.752;2024-02-26T08:33:18;2.90;;;1.58;;
51374;SDS011;37465;52.738;4.752;2024-02-26T08:35:46;3.90;;;1.55;;
51374;SDS011;37465;52.738;4.752;2024-02-26T08:38:13;3.28;;;1.73;;
51374;SDS011;37465;52.738;4.752;2024-02-26T08:40:43;1.85;;;1.60;;
51374;SDS011;37465;52.738;4.752;2024-02-26T08:43:10;3.92;;;1.90;;
51374;SDS011;37465;52.738;4.752;2024-02-26T08:45:38;3.55;;;1.77;;
51374;SDS011;37465;52.738;4.752;2024-02-26T08:48:06;3.30;;;2.30;;
51374;SDS011;37465;52.738;4.752;2024-02-26T08:50:34;4.18;;;2.05;;
51374;SDS011;37465;52.738;4.752;2024-02-26T08:53:02;2.50;;;1.35;;
51374;SDS011;37465;52.738;4.752;2024-02-26T08:55:33;2.95;;;1.55;;
51374;SDS011;37465;52.738;4.752;2024-02-26T08:58:02;4.75;;;1.70;;
51374;SDS011;37465;52.738;4.752;2024-02-26T09:00:29;3.28;;;1.63;;
51374;SDS011;37465;52.738;4.752;2024-02-26T09:02:57;2.45;;;1.50;;
51374;SDS011;37465;52.738;4.752;2024-02-26T09:05:30;2.97;;;1.55;;
51374;SDS011;37465;52.738;4.752;2024-02-26T09:07:58;3.40;;;1.50;;
51374;SDS011;37465;52.738;4.752;2024-02-26T09:10:25;4.22;;;1.40;;
51374;SDS011;37465;52.738;4.752;2024-02-26T09:12:53;2.40;;;1.70;;
51374;SDS011;37465;52.738;4.752;2024-02-26T09:15:23;3.35;;;1.88;;
51374;SDS011;37465;52.738;4.752;2024-02-26T09:17:50;4.32;;;2.25;;
51374;SDS011;37465;52.738;4.752;2024-02-26T09:20:18;4.55;;;1.88;;
51374;SDS011;37465;52.738;4.752;2024-02-26T09:22:47;3.95;;;1.80;;
51374;SDS011;37465;52.738;4.752;2024-02-26T09:25:15;3.88;;;1.90;;
51374;SDS011;37465;52.738;4.752;2024-02-26T09:27:43;2.67;;;2.28;;
51374;SDS011;37465;52.738;4.752;2024-02-26T09:30:11;3.28;;;1.95;;
51374;SDS011;37465;52.738;4.752;2024-02-26T09:32:40;3.00;;;2.35;;
51374;SDS011;37465;52.738;4.752;2024-02-26T09:35:08;3.38;;;2.45;;
51374;SDS011;37465;52.738;4.752;2024-02-26T09:37:36;4.07;;;2.17;;
51374;SDS011;37465;52.738;4.752;2024-02-26T09:40:03;4.13;;;2.10;;
51374;SDS011;37465;52.738;4.752;2024-02-26T09:42:32;4.28;;;2.05;;
51374;SDS011;37465;52.738;4.752;2024-02-26T09:45:02;6.28;;;2.40;;
51374;SDS011;37465;52.738;4.752;2024-02-26T09:47:34;5.35;;;2.03;;
51374;SDS011;37465;52.738;4.752;2024-02-26T09:50:05;2.70;;;2.10;;
51374;SDS011;37465;52.738;4.752;2024-02-26T09:52:35;3.50;;;2.22;;
51374;SDS011;37465;52.738;4.752;2024-02-26T09:55:05;4.22;;;2.05;;
51374;SDS011;37465;52.738;4.752;2024-02-26T09:57:32;4.78;;;2.10;;
51374;SDS011;37465;52.738;4.752;2024-02-26T10:00:00;4.55;;;2.35;;
51374;SDS011;37465;52.738;4.752;2024-02-26T10:02:33;6.00;;;2.40;;
51374;SDS011;37465;52.738;4.752;2024-02-26T10:05:04;3.70;;;1.73;;
51374;SDS011;37465;52.738;4.752;2024-02-26T10:07:34;4.63;;;2.38;;
51374;SDS011;37465;52.738;4.752;2024-02-26T10:10:03;3.00;;;1.73;;
51374;SDS011;37465;52.738;4.752;2024-02-26T10:12:30;3.72;;;2.22;;
51374;SDS011;37465;52.738;4.752;2024-02-26T10:15:01;5.28;;;2.42;;
51374;SDS011;37465;52.738;4.752;2024-02-26T10:17:29;4.95;;;2.60;;
51374;SDS011;37465;52.738;4.752;2024-02-26T10:20:04;5.07;;;2.33;;
51374;SDS011;37465;52.738;4.752;2024-02-26T10:22:37;5.05;;;1.95;;
51374;SDS011;37465;52.738;4.752;2024-02-26T10:25:05;5.13;;;2.22;;
51374;SDS011;37465;52.738;4.752;2024-02-26T10:27:34;5.18;;;2.17;;
51374;SDS011;37465;52.738;4.752;2024-02-26T10:30:02;3.50;;;2.08;;
51374;SDS011;37465;52.738;4.752;2024-02-26T10:32:32;4.28;;;1.98;;
51374;SDS011;37465;52.738;4.752;2024-02-26T10:35:01;2.20;;;1.95;;
51374;SDS011;37465;52.738;4.752;2024-02-26T10:37:30;2.83;;;2.00;;
51374;SDS011;37465;52.738;4.752;2024-02-26T10:39:59;4.03;;;2.05;;
51374;SDS011;37465;52.738;4.752;2024-02-26T10:42:27;2.90;;;1.80;;
51374;SDS011;37465;52.738;4.752;2024-02-26T10:44:54;4.97;;;2.10;;
51374;SDS011;37465;52.738;4.752;2024-02-26T10:47:22;4.63;;;2.10;;
51374;SDS011;37465;52.738;4.752;2024-02-26T10:49:49;5.57;;;1.90;;
51374;SDS011;37465;52.738;4.752;2024-02-26T10:52:18;2.80;;;2.22;;
51374;SDS011;37465;52.738;4.752;2024-02-26T10:54:47;2.75;;;1.48;;
51374;SDS011;37465;52.738;4.752;2024-02-26T10:57:17;4.70;;;1.80;;
51374;SDS011;37465;52.738;4.752;2024-02-26T10:59:45;2.70;;;1.70;;
51374;SDS011;37465;52.738;4.752;2024-02-26T11:02:12;5.68;;;2.55;;
51374;SDS011;37465;52.738;4.752;2024-02-26T11:04:49;3.28;;;2.05;;
51374;SDS011;37465;52.738;4.752;2024-02-26T11:07:17;3.13;;;1.90;;
51374;SDS011;37465;52.738;4.752;2024-02-26T11:09:45;2.83;;;1.67;;
51374;SDS011;37465;52.738;4.752;2024-02-26T11:12:19;2.55;;;1.63;;
51374;SDS011;37465;52.738;4.752;2024-02-26T11:14:48;3.50;;;1.60;;
51374;SDS011;37465;52.738;4.752;2024-02-26T11:17:21;4.82;;;1.52;;
51374;SDS011;37465;52.738;4.752;2024-02-26T11:19:49;3.30;;;1.70;;
51374;SDS011;37465;52.738;4.752;2024-02-26T11:22:16;1.75;;;1.63;;
51374;SDS011;37465;52.738;4.752;2024-02-26T11:24:50;3.15;;;1.33;;
51374;SDS011;37465;52.738;4.752;2024-02-26T11:27:19;2.95;;;1.30;;
51374;SDS011;37465;52.738;4.752;2024-02-26T11:29:49;2.67;;;1.60;;
51374;SDS011;37465;52.738;4.752;2024-02-26T11:32:18;3.83;;;1.38;;
51374;SDS011;37465;52.738;4.752;2024-02-26T11:34:46;2.35;;;1.20;;
51374;SDS011;37465;52.738;4.752;2024-02-26T11:37:15;1.98;;;1.30;;
51374;SDS011;37465;52.738;4.752;2024-02-26T11:39:44;2.47;;;1.30;;
51374;SDS011;37465;52.738;4.752;2024-02-26T11:42:13;3.03;;;1.13;;
51374;SDS011;37465;52.738;4.752;2024-02-26T11:44:42;4.85;;;1.60;;
51374;SDS011;37465;52.738;4.752;2024-02-26T11:47:10;3.95;;;1.52;;
51374;SDS011;37465;52.738;4.752;2024-02-26T11:49:38;4.22;;;1.50;;
51374;SDS011;37465;52.738;4.752;2024-02-26T11:52:07;3.08;;;1.30;;
51374;SDS011;37465;52.738;4.752;2024-02-26T11:54:38;3.10;;;2.03;;
51374;SDS011;37465;52.738;4.752;2024-02-26T11:57:19;4.72;;;1.88;;
51374;SDS011;37465;52.738;4.752;2024-02-26T11:59:48;4.47;;;1.63;;
51374;SDS011;37465;52.738;4.752;2024-02-26T12:05:05;2.75;;;1.10;;
51374;SDS011;37465;52.738;4.752;2024-02-26T12:07:33;2.17;;;1.27;;
51374;SDS011;37465;52.738;4.752;2024-02-26T12:12:48;4.68;;;1.75;;
51374;SDS011;37465;52.738;4.752;2024-02-26T12:15:17;2.35;;;1.35;;
51374;SDS011;37465;52.738;4.752;2024-02-26T12:17:48;2.50;;;1.48;;
51374;SDS011;37465;52.738;4.752;2024-02-26T12:20:16;2.92;;;1.83;;
51374;SDS011;37465;52.738;4.752;2024-02-26T12:22:46;2.45;;;1.30;;
51374;SDS011;37465;52.738;4.752;2024-02-26T12:25:14;4.28;;;1.80;;
51374;SDS011;37465;52.738;4.752;2024-02-26T12:27:41;4.70;;;1.95;;
51374;SDS011;37465;52.738;4.752;2024-02-26T12:30:12;5.18;;;2.20;;
51374;SDS011;37465;52.738;4.752;2024-02-26T12:32:41;4.03;;;1.80;;
51374;SDS011;37465;52.738;4.752;2024-02-26T12:35:09;2.92;;;1.65;;
51374;SDS011;37465;52.738;4.752;2024-02-26T12:37:36;5.13;;;1.80;;
51374;SDS011;37465;52.738;4.752;2024-02-26T12:40:09;4.10;;;1.73;;
51374;SDS011;37465;52.738;4.752;2024-02-26T12:42:38;3.58;;;1.92;;
51374;SDS011;37465;52.738;4.752;2024-02-26T12:45:07;2.72;;;1.83;;
51374;SDS011;37465;52.738;4.752;2024-02-26T12:47:36;5.15;;;2.20;;
51374;SDS011;37465;52.738;4.752;2024-02-26T12:50:06;4.82;;;2.13;;
51374;SDS011;37465;52.738;4.752;2024-02-26T12:52:35;5.05;;;2.20;;
51374;SDS011;37465;52.738;4.752;2024-02-26T12:55:03;5.72;;;2.65;;
51374;SDS011;37465;52.738;4.752;2024-02-26T12:57:34;4.13;;;2.30;;
51374;SDS011;37465;52.738;4.752;2024-02-26T13:00:03;5.00;;;2.47;;
51374;SDS011;37465;52.738;4.752;2024-02-26T13:02:32;5.90;;;2.20;;
51374;SDS011;37465;52.738;4.752;2024-02-26T13:05:01;3.40;;;2.20;;
51374;SDS011;37465;52.738;4.752;2024-02-26T13:07:30;5.30;;;2.90;;
51374;SDS011;37465;52.738;4.752;2024-02-26T13:09:59;6.60;;;2.60;;
51374;SDS011;37465;52.738;4.752;2024-02-26T13:12:27;4.18;;;2.25;;
51374;SDS011;37465;52.738;4.752;2024-02-26T13:14:58;5.20;;;2.60;;
51374;SDS011;37465;52.738;4.752;2024-02-26T13:17:26;5.30;;;2.42;;
51374;SDS011;37465;52.738;4.752;2024-02-26T13:19:54;4.13;;;2.07;;
51374;SDS011;37465;52.738;4.752;2024-02-26T13:22:22;9.63;;;2.25;;
51374;SDS011;37465;52.738;4.752;2024-02-26T13:24:54;4.88;;;1.90;;
51374;SDS011;37465;52.738;4.752;2024-02-26T13:27:22;5.30;;;2.00;;
51374;SDS011;37465;52.738;4.752;2024-02-26T13:30:01;8.75;;;2.50;;
51374;SDS011;37465;52.738;4.752;2024-02-26T13:32:29;3.97;;;2.20;;
51374;SDS011;37465;52.738;4.752;2024-02-26T13:35:03;2.78;;;2.05;;
51374;SDS011;37465;52.738;4.752;2024-02-26T13:37:33;7.90;;;1.88;;
51374;SDS011;37465;52.738;4.752;2024-02-26T13:40:05;5.20;;;2.00;;
51374;SDS011;37465;52.738;4.752;2024-02-26T13:42:35;6.25;;;1.70;;
51374;SDS011;37465;52.738;4.752;2024-02-26T13:45:03;4.63;;;1.63;;
51374;SDS011;37465;52.738;4.752;2024-02-26T13:47:32;3.35;;;1.20;;
51374;SDS011;37465;52.738;4.752;2024-02-26T13:50:00;6.70;;;1.40;;
51374;SDS011;37465;52.738;4.752;2024-02-26T13:52:28;6.35;;;1.50;;
51374;SDS011;37465;52.738;4.752;2024-02-26T13:54:58;2.88;;;1.17;;
51374;SDS011;37465;52.738;4.752;2024-02-26T13:57:27;4.53;;;1.30;;
51374;SDS011;37465;52.738;4.752;2024-02-26T13:59:55;4.60;;;1.42;;
51374;SDS011;37465;52.738;4.752;2024-02-26T14:02:22;3.45;;;1.00;;
51374;SDS011;37465;52.738;4.752;2024-02-26T14:04:50;6.35;;;1.20;;
51374;SDS011;37465;52.738;4.752;2024-02-26T14:07:17;7.50;;;1.60;;
51374;SDS011;37465;52.738;4.752;2024-02-26T14:09:44;4.32;;;1.30;;
51374;SDS011;37465;52.738;4.752;2024-02-26T14:12:15;7.15;;;1.30;;
51374;SDS011;37465;52.738;4.752;2024-02-26T14:14:48;3.42;;;1.05;;
51374;SDS011;37465;52.738;4.752;2024-02-26T14:17:16;7.03;;;1.45;;
51374;SDS011;37465;52.738;4.752;2024-02-26T14:19:43;3.22;;;1.00;;
51374;SDS011;37465;52.738;4.752;2024-02-26T14:22:11;6.95;;;0.80;;
51374;SDS011;37465;52.738;4.752;2024-02-26T14:24:38;4.90;;;1.30;;
51374;SDS011;37465;52.738;4.752;2024-02-26T14:27:07;5.53;;;0.93;;
51374;SDS011;37465;52.738;4.752;2024-02-26T14:29:35;4.45;;;0.80;;
51374;SDS011;37465;52.738;4.752;2024-02-26T14:32:04;6.97;;;1.17;;
51374;SDS011;37465;52.738;4.752;2024-02-26T14:37:00;7.53;;;1.10;;
51374;SDS011;37465;52.738;4.752;2024-02-26T14:39:27;2.35;;;0.68;;
51374;SDS011;37465;52.738;4.752;2024-02-26T14:41:55;4.40;;;1.05;;
51374;SDS011;37465;52.738;4.752;2024-02-26T14:44:23;5.22;;;1.38;;
51374;SDS011;37465;52.738;4.752;2024-02-26T14:46:51;4.50;;;1.00;;
51374;SDS011;37465;52.738;4.752;2024-02-26T14:49:20;5.03;;;1.35;;
51374;SDS011;37465;52.738;4.752;2024-02-26T14:51:48;7.60;;;1.40;;